Time;durP1;ratioP1;P1;durP2;ratioP2;P2;SDS_P1;SDS_P2;PMS_P1;PMS_P2;Temp;Humidity;BMP_temperature;BMP_pressure;BME280_temperature;BME280_humidity;BME280_pressure;Samples;Min_cycle;Max_cycle;Signal;HPM_P1;HPM_P2
2021/06/23 00:00:32;;;;;;;2.30;1.80;;;;;;;13.94;90.15;101507.00;5052059;28;20045;-68
2021/06/23 00:02:59;;;;;;;5.18;1.95;;;;;;;13.84;90.75;101503.22;5051588;28;20049;-69
2021/06/23 00:05:27;;;;;;;2.70;1.95;;;;;;;13.89;90.55;101511.63;5051708;28;20388;-68
2021/06/23 00:07:55;;;;;;;9.35;1.80;;;;;;;13.88;90.62;101523.06;5052081;28;20072;-69
2021/06/23 00:10:22;;;;;;;3.13;2.13;;;;;;;13.97;90.11;101519.06;5055421;28;20049;-68
2021/06/23 00:12:50;;;;;;;3.10;2.08;;;;;;;13.97;89.83;101517.28;5073569;28;20526;-68
2021/06/23 00:15:20;;;;;;;1.90;1.70;;;;;;;14.12;88.19;101519.00;5075804;28;20110;-68
2021/06/23 00:17:47;;;;;;;4.70;1.90;;;;;;;14.03;88.96;101518.72;5075602;28;20052;-69
2021/06/23 00:20:15;;;;;;;4.30;2.00;;;;;;;14.01;88.92;101512.72;5075663;28;20055;-68
2021/06/23 00:22:42;;;;;;;3.65;2.08;;;;;;;13.84;89.59;101509.28;5075733;28;20048;-68
2021/06/23 00:25:12;;;;;;;1.90;1.80;;;;;;;13.84;89.19;101501.44;5075497;28;20395;-68
2021/06/23 00:27:39;;;;;;;2.70;2.10;;;;;;;13.71;90.00;101519.59;5075460;28;20499;-68
2021/06/23 00:30:07;;;;;;;2.30;1.73;;;;;;;13.55;90.82;101520.53;5075665;28;20048;-68
2021/06/23 00:32:36;;;;;;;3.67;2.13;;;;;;;13.57;90.80;101529.16;5075359;28;20498;-68
2021/06/23 00:35:03;;;;;;;5.25;2.03;;;;;;;13.75;90.07;101532.53;5075684;28;20060;-68
2021/06/23 00:37:30;;;;;;;1.75;1.50;;;;;;;13.82;90.01;101541.69;5075391;28;20502;-68
2021/06/23 00:39:57;;;;;;;2.05;1.70;;;;;;;13.71;90.68;101547.53;5075213;28;20380;-68
2021/06/23 00:42:25;;;;;;;2.08;1.65;;;;;;;13.90;89.33;101539.50;5075428;28;20075;-68
2021/06/23 00:44:53;;;;;;;3.08;1.90;;;;;;;13.92;89.03;101543.72;5075424;28;20052;-68
2021/06/23 00:47:20;;;;;;;1.88;1.30;;;;;;;13.97;88.92;101553.06;5074670;28;20057;-68
2021/06/23 00:49:47;;;;;;;4.43;1.60;;;;;;;13.79;88.99;101557.56;5075426;28;20048;-68
2021/06/23 00:52:14;;;;;;;2.75;1.40;;;;;;;13.68;90.57;101564.22;5074594;28;20048;-68
2021/06/23 00:54:48;;;;;;;2.50;2.00;;;;;;;13.62;90.80;101556.72;5074997;28;20509;-68
2021/06/23 00:57:17;;;;;;;1.58;1.45;;;;;;;13.69;90.49;101562.44;5075037;28;20083;-68
2021/06/23 00:59:49;;;;;;;3.67;1.70;;;;;;;13.98;88.61;101568.69;5074854;28;20049;-68
2021/06/23 01:02:17;;;;;;;3.78;1.30;;;;;;;13.91;88.50;101565.56;5074928;28;20067;-68
2021/06/23 01:04:44;;;;;;;2.30;1.40;;;;;;;13.91;89.66;101570.78;5074886;28;20487;-69
2021/06/23 01:07:11;;;;;;;2.38;1.40;;;;;;;14.07;88.16;101560.31;5074706;28;20044;-68
2021/06/23 01:09:38;;;;;;;;;;;;;;;14.17;87.38;101558.00;5075534;28;20067;-68
2021/06/23 01:12:16;;;;;;;2.40;1.30;;;;;;;14.07;87.78;101544.59;5062571;28;19928;-68
2021/06/23 01:14:46;;;;;;;1.48;1.30;;;;;;;13.99;88.37;101541.59;5055066;28;20122;-68
2021/06/23 01:17:13;;;;;;;3.10;1.33;;;;;;;13.92;89.01;101532.38;5054487;28;20383;-68
2021/06/23 01:19:43;;;;;;;3.38;1.50;;;;;;;13.82;89.24;101523.38;5054199;28;20049;-68
2021/06/23 01:22:13;;;;;;;7.00;1.52;;;;;;;13.86;89.04;101522.28;5054348;28;20049;-68
2021/06/23 01:24:41;;;;;;;2.15;1.30;;;;;;;13.71;89.55;101518.75;5055022;28;20049;-68
2021/06/23 01:27:09;;;;;;;3.05;1.25;;;;;;;13.83;88.84;101523.31;5054047;28;20564;-68
2021/06/23 01:29:36;;;;;;;4.32;1.40;;;;;;;13.86;88.80;101522.28;5054635;28;20053;-68
2021/06/23 01:32:03;;;;;;;3.28;1.40;;;;;;;13.64;91.06;101527.88;5054254;28;20048;-68
2021/06/23 01:34:30;;;;;;;1.30;1.17;;;;;;;13.79;88.88;101520.94;5054225;28;20396;-69
2021/06/23 01:36:57;;;;;;;1.73;1.40;;;;;;;13.68;89.13;101530.22;5054255;28;20049;-68
2021/06/23 01:39:25;;;;;;;3.10;1.92;;;;;;;13.63;89.55;101532.25;5053866;28;20135;-68
2021/06/23 01:41:52;;;;;;;5.00;3.17;;;;;;;13.68;89.17;101524.16;5054425;28;20045;-68
2021/06/23 01:44:19;;;;;;;3.90;2.70;;;;;;;13.68;89.42;101518.94;5054073;28;20056;-68
2021/06/23 01:46:46;;;;;;;;;;;;;;;13.62;89.75;101516.66;5054658;28;20135;-68
2021/06/23 01:49:13;;;;;;;4.40;2.22;;;;;;;13.52;90.33;101518.94;5053559;28;19921;-68
2021/06/23 01:51:40;;;;;;;1.85;1.65;;;;;;;13.61;89.48;101513.19;5054203;28;20049;-68
2021/06/23 01:54:06;;;;;;;8.70;1.50;;;;;;;13.57;90.42;101510.84;5053649;28;20582;-68
2021/06/23 01:56:35;;;;;;;1.55;1.13;;;;;;;13.39;90.54;101502.25;5053761;28;20045;-68
2021/06/23 01:59:02;;;;;;;2.58;1.10;;;;;;;13.51;89.88;101501.56;5053552;28;20056;-68
2021/06/23 02:01:32;;;;;;;;;;;;;;;13.45;90.52;101491.44;5054362;28;20056;-68
2021/06/23 02:04:11;;;;;;;1.20;1.10;;;;;;;13.48;89.88;101486.88;5054066;28;19928;-69
2021/06/23 02:07:10;;;;;;;3.38;0.95;;;;;;;13.59;88.90;101473.25;5053906;28;20060;-68
2021/06/23 02:09:50;;;;;;;2.58;1.00;;;;;;;13.46;89.56;101472.22;5053945;28;20131;-68
2021/06/23 02:12:42;;;;;;;0.93;0.93;;;;;;;13.37;89.82;101473.56;5066515;28;20402;-68
2021/06/23 02:15:09;;;;;;;1.85;0.80;;;;;;;13.36;89.92;101463.19;5073536;28;20052;-68
2021/06/23 02:17:40;;;;;;;1.80;0.90;;;;;;;13.32;89.73;101472.16;5073408;28;20052;-68
2021/06/23 02:20:08;;;;;;;1.10;0.88;;;;;;;13.29;90.07;101486.22;5073389;28;20056;-68
2021/06/23 02:22:35;;;;;;;3.63;0.90;;;;;;;13.39;89.60;101476.13;5073462;28;20055;-67
2021/06/23 02:25:08;;;;;;;3.65;1.10;;;;;;;13.28;90.21;101484.53;5072869;28;20053;-68
2021/06/23 02:27:40;;;;;;;1.38;0.93;;;;;;;13.24;90.53;101483.00;5073629;28;20055;-67
2021/06/23 02:30:10;;;;;;;3.20;0.88;;;;;;;13.32;90.24;101491.28;5073405;28;20434;-67
2021/06/23 02:32:40;;;;;;;5.95;0.93;;;;;;;13.33;90.13;101486.88;5072282;28;20063;-67
2021/06/23 02:35:09;;;;;;;0.98;0.77;;;;;;;13.31;90.06;101478.28;5072881;28;20152;-67
2021/06/23 02:37:36;;;;;;;1.50;0.80;;;;;;;13.32;90.08;101473.00;5073312;28;20040;-68
2021/06/23 02:40:05;;;;;;;1.33;1.08;;;;;;;13.41;89.22;101472.50;5073245;28;20048;-68
2021/06/23 02:42:32;;;;;;;6.18;3.58;;;;;;;13.41;88.85;101467.25;5072771;28;20238;-68
2021/06/23 02:45:01;;;;;;;4.50;2.78;;;;;;;13.45;88.46;101455.69;5073324;28;20056;-67
2021/06/23 02:47:28;;;;;;;3.33;1.63;;;;;;;13.36;88.89;101450.13;5072895;28;20063;-67
2021/06/23 02:49:55;;;;;;;;;;;;;;;13.35;89.08;101458.91;5073605;28;20056;-67
2021/06/23 02:52:22;;;;;;;5.85;1.33;;;;;;;13.36;89.46;101457.97;5072611;28;19921;-67
2021/06/23 02:54:49;;;;;;;2.80;1.00;;;;;;;13.35;89.49;101459.75;5073141;28;20057;-67
2021/06/23 02:57:16;;;;;;;;;;;;;;;13.38;89.77;101459.56;5072703;28;20407;-67
2021/06/23 02:59:47;;;;;;;4.22;0.80;;;;;;;13.47;88.73;101466.06;5072516;28;19928;-67
2021/06/23 03:02:15;;;;;;;0.80;0.80;;;;;;;13.43;89.10;101468.00;5072523;28;20075;-68
2021/06/23 03:04:45;;;;;;;2.97;0.73;;;;;;;13.47;88.77;101464.28;5072812;28;20059;-67
2021/06/23 03:07:13;;;;;;;2.78;0.80;;;;;;;13.43;88.59;101468.00;5072265;28;20620;-68
2021/06/23 03:09:43;;;;;;;0.80;0.80;;;;;;;13.35;89.48;101469.34;5072651;28;20049;-68
2021/06/23 03:12:11;;;;;;;0.80;0.73;;;;;;;13.39;89.21;101457.81;5059547;28;20041;-68
2021/06/23 03:14:38;;;;;;;4.82;1.00;;;;;;;13.33;89.67;101456.38;5052769;28;20048;-68
2021/06/23 03:17:05;;;;;;;0.70;0.70;;;;;;;13.61;88.28;101455.66;5052329;28;20052;-68
2021/06/23 03:19:34;;;;;;;2.30;0.77;;;;;;;13.69;88.15;101460.47;5052388;28;20434;-68
2021/06/23 03:22:04;;;;;;;1.40;0.80;;;;;;;13.60;87.79;101461.84;5052232;28;20049;-67
2021/06/23 03:24:31;;;;;;;1.65;0.90;;;;;;;13.70;87.46;101464.78;5052587;28;20048;-67
2021/06/23 03:26:58;;;;;;;4.47;0.88;;;;;;;13.68;87.54;101467.47;5052501;28;20057;-67
2021/06/23 03:29:28;;;;;;;4.60;0.80;;;;;;;13.62;88.54;101475.66;5051930;28;20049;-67
2021/06/23 03:31:55;;;;;;;1.60;0.80;;;;;;;13.67;88.13;101478.03;5052094;28;20049;-68
2021/06/23 03:34:22;;;;;;;2.92;0.80;;;;;;;13.73;87.29;101488.97;5051786;28;20388;-67
2021/06/23 03:36:51;;;;;;;1.52;0.75;;;;;;;13.81;87.50;101492.94;5052001;28;20407;-67
2021/06/23 03:39:18;;;;;;;1.75;0.80;;;;;;;13.97;86.85;101498.13;5051790;28;20061;-67
2021/06/23 03:41:45;;;;;;;1.88;0.80;;;;;;;14.09;85.83;101502.66;5051948;28;20049;-67
2021/06/23 03:44:12;;;;;;;0.98;0.85;;;;;;;14.16;85.81;101504.00;5051455;28;20052;-68
2021/06/23 03:46:39;;;;;;;3.67;0.80;;;;;;;14.30;85.13;101511.03;5051924;28;20048;-68
2021/06/23 03:49:06;;;;;;;3.60;1.00;;;;;;;14.37;85.26;101514.97;5051429;28;20064;-68
2021/06/23 03:51:33;;;;;;;1.75;1.08;;;;;;;14.19;86.07;101523.91;5052127;28;20049;-68
2021/06/23 03:54:02;;;;;;;2.10;1.20;;;;;;;14.40;85.30;101525.25;5051951;28;20049;-68
2021/06/23 03:56:30;;;;;;;3.85;1.10;;;;;;;14.31;85.11;101515.34;5051760;28;20076;-68
2021/06/23 03:58:57;;;;;;;1.63;1.23;;;;;;;14.09;86.87;101516.56;5052072;28;20045;-68
2021/06/23 04:01:23;;;;;;;1.45;1.10;;;;;;;14.11;86.78;101530.44;5051860;28;20045;-68
2021/06/23 04:03:50;;;;;;;1.52;0.90;;;;;;;14.21;86.94;101524.66;5052114;28;20051;-68
2021/06/23 04:06:17;;;;;;;1.08;0.98;;;;;;;14.11;86.18;101533.03;5051570;28;20055;-68
2021/06/23 04:08:44;;;;;;;2.03;1.10;;;;;;;13.99;86.75;101533.72;5052027;28;20060;-68
2021/06/23 04:11:12;;;;;;;4.13;0.93;;;;;;;14.10;86.26;101536.59;5055584;28;20044;-68
2021/06/23 04:13:39;;;;;;;1.10;1.00;;;;;;;14.04;86.45;101536.09;5072037;28;20052;-68
2021/06/23 04:16:06;;;;;;;1.15;0.98;;;;;;;14.17;85.85;101542.31;5071405;28;20048;-68
2021/06/23 04:18:33;;;;;;;3.15;0.98;;;;;;;14.19;86.33;101540.44;5072001;28;20058;-68
2021/06/23 04:20:59;;;;;;;2.90;1.20;;;;;;;14.03;87.01;101545.72;5072014;28;20063;-68
2021/06/23 04:23:26;;;;;;;2.13;0.98;;;;;;;14.14;86.80;101548.56;5071877;28;20052;-68
2021/06/23 04:25:53;;;;;;;2.10;1.02;;;;;;;14.10;87.16;101539.22;5071621;28;20143;-68
2021/06/23 04:28:21;;;;;;;2.03;1.13;;;;;;;14.21;86.32;101537.75;5071689;28;20048;-68
2021/06/23 04:30:48;;;;;;;3.00;1.00;;;;;;;14.42;85.13;101539.13;5071771;28;20055;-68
2021/06/23 04:33:15;;;;;;;1.50;1.02;;;;;;;14.65;84.32;101545.66;5071668;28;20131;-68
2021/06/23 04:35:42;;;;;;;;;;;;;;;14.83;84.41;101554.19;5072231;28;20048;-68
2021/06/23 04:38:10;;;;;;;1.60;1.20;;;;;;;14.90;83.85;101554.63;5071277;28;19935;-67
2021/06/23 04:40:37;;;;;;;1.15;1.05;;;;;;;15.09;83.88;101557.00;5071542;28;20436;-67
2021/06/23 04:43:04;;;;;;;2.72;0.95;;;;;;;14.98;83.66;101560.28;5071570;28;20045;-69
2021/06/23 04:45:33;;;;;;;1.20;1.10;;;;;;;14.87;83.98;101553.03;5071394;28;20052;-69
2021/06/23 04:48:00;;;;;;;2.28;1.08;;;;;;;15.05;83.32;101555.47;5071222;28;20052;-66
2021/06/23 04:50:27;;;;;;;1.90;1.10;;;;;;;14.92;83.75;101563.25;5071458;28;20080;-65
2021/06/23 04:52:54;;;;;;;3.63;0.95;;;;;;;14.93;84.45;101563.16;5071539;28;20044;-66
2021/06/23 04:55:21;;;;;;;2.50;1.20;;;;;;;14.93;84.23;101559.72;5071682;28;20418;-66
2021/06/23 04:57:47;;;;;;;1.20;1.10;;;;;;;15.09;84.57;101580.59;5074601;28;20056;-67
2021/06/23 05:00:15;;;;;;;2.25;1.10;;;;;;;15.27;82.53;101573.38;5074435;28;20044;-67
2021/06/23 05:02:44;;;;;;;1.98;1.20;;;;;;;15.14;82.90;101576.75;5074994;28;20051;-67
2021/06/23 05:05:11;;;;;;;1.20;0.90;;;;;;;15.34;82.52;101577.31;5074502;28;20055;-67
2021/06/23 05:07:38;;;;;;;1.60;1.13;;;;;;;15.46;81.74;101581.75;5075144;28;20049;-67
2021/06/23 05:10:06;;;;;;;1.38;1.23;;;;;;;15.25;81.85;101587.41;5074771;28;20048;-67
2021/06/23 05:12:33;;;;;;;2.72;1.30;;;;;;;15.40;81.89;101584.78;5058784;28;20048;-68
2021/06/23 05:15:00;;;;;;;4.32;1.23;;;;;;;15.23;82.50;101583.19;5054562;28;20060;-68
2021/06/23 05:17:27;;;;;;;1.10;1.00;;;;;;;15.72;81.31;101588.06;5054524;28;20388;-67
2021/06/23 05:19:56;;;;;;;1.75;0.90;;;;;;;15.37;81.78;101585.81;5054487;28;20056;-68
2021/06/23 05:22:23;;;;;;;5.15;1.13;;;;;;;15.54;81.27;101586.53;5054417;28;20045;-68
2021/06/23 05:24:50;;;;;;;;;;;;;;;15.42;82.09;101586.38;5055026;28;20059;-68
2021/06/23 05:27:16;;;;;;;1.90;1.15;;;;;;;15.42;81.63;101591.63;5054567;28;19921;-68
2021/06/23 05:29:43;;;;;;;2.88;1.30;;;;;;;15.07;83.48;101588.53;5054346;28;20522;-68
2021/06/23 05:32:10;;;;;;;3.60;1.17;;;;;;;14.99;83.30;101591.59;5054172;28;20515;-68
2021/06/23 05:34:37;;;;;;;4.28;1.30;;;;;;;15.24;82.76;101584.88;5054250;28;20045;-67
2021/06/23 05:37:06;;;;;;;3.35;1.35;;;;;;;15.18;82.88;101587.88;5053958;28;20045;-69
2021/06/23 05:39:33;;;;;;;2.65;1.20;;;;;;;15.07;83.23;101587.69;5054324;28;20056;-69
2021/06/23 05:42:00;;;;;;;1.20;1.10;;;;;;;15.06;82.72;101591.25;5053984;28;20056;-69
2021/06/23 05:44:28;;;;;;;1.48;1.10;;;;;;;15.27;81.81;101589.09;5054203;28;20056;-69
2021/06/23 05:46:55;;;;;;;1.65;1.35;;;;;;;15.33;81.68;101583.47;5054261;28;20053;-69
2021/06/23 05:49:21;;;;;;;;;;;;;;;15.17;82.28;101578.34;5054112;28;20053;-69
2021/06/23 05:51:48;;;;;;;4.30;1.38;;;;;;;14.97;82.66;101587.41;5053859;28;19928;-69
2021/06/23 05:54:16;;;;;;;;;;;;;;;15.11;82.34;101587.41;5054262;28;20049;-66
2021/06/23 05:56:43;;;;;;;1.42;1.10;;;;;;;14.93;82.69;101592.00;5054076;28;19928;-69
2021/06/23 05:59:10;;;;;;;1.63;1.25;;;;;;;14.67;83.81;101590.94;5053475;28;20051;-70
2021/06/23 06:01:37;;;;;;;5.97;1.58;;;;;;;14.70;84.25;101592.53;5053897;28;20063;-69
2021/06/23 06:04:04;;;;;;;3.25;1.00;;;;;;;15.07;82.37;101596.38;5053480;28;20408;-69
2021/06/23 06:06:31;;;;;;;6.05;1.20;;;;;;;14.83;83.63;101601.34;5053383;28;20044;-69
2021/06/23 06:08:57;;;;;;;1.77;1.00;;;;;;;14.78;83.66;101593.75;5053903;28;20052;-69
2021/06/23 06:11:26;;;;;;;1.35;1.00;;;;;;;14.79;83.22;101592.78;5059597;28;20063;-69
2021/06/23 06:13:52;;;;;;;2.75;1.10;;;;;;;15.06;82.60;101592.09;5073545;28;20051;-68
2021/06/23 06:16:19;;;;;;;2.55;1.10;;;;;;;15.12;82.31;101601.34;5073117;28;20495;-69
2021/06/23 06:18:47;;;;;;;6.20;1.13;;;;;;;15.01;83.10;101599.38;5073674;28;20048;-70
2021/06/23 06:21:14;;;;;;;4.40;1.23;;;;;;;14.88;82.52;101596.66;5073398;28;20044;-70
2021/06/23 06:23:41;;;;;;;;;;;;;;;15.09;81.71;101584.03;5073944;28;20048;-68
2021/06/23 06:26:08;;;;;;;;;;;;;;;15.07;82.16;101579.81;5073397;28;19920;-68
2021/06/23 06:28:37;;;;;;;;;;;;;;;15.03;82.29;101574.78;5074006;28;20003;-69
2021/06/23 06:31:04;;;;;;;2.30;0.90;;;;;;;15.14;82.02;101573.28;5073181;28;19924;-69
2021/06/23 06:33:31;;;;;;;2.20;1.17;;;;;;;15.20;82.06;101571.09;5072860;28;20059;-68
2021/06/23 06:35:58;;;;;;;1.30;1.00;;;;;;;14.98;82.40;101571.59;5072917;28;20048;-68
2021/06/23 06:38:25;;;;;;;2.35;0.90;;;;;;;14.87;83.42;101575.78;5072733;28;20052;-68
2021/06/23 06:40:51;;;;;;;;;;;;;;;14.97;83.32;101577.75;5073587;28;20044;-68
2021/06/23 06:43:18;;;;;;;2.25;0.82;;;;;;;14.86;83.49;101579.34;5072539;28;20294;-69
2021/06/23 06:45:49;;;;;;;1.20;1.10;;;;;;;14.86;84.10;101588.03;5072889;28;20063;-69
2021/06/23 06:48:16;;;;;;;1.38;1.10;;;;;;;15.03;83.14;101579.19;5072363;28;20057;-70
2021/06/23 06:50:43;;;;;;;2.85;0.88;;;;;;;15.08;83.71;101577.13;5072683;28;20399;-69
2021/06/23 06:53:10;;;;;;;0.88;0.77;;;;;;;15.35;82.32;101564.09;5072747;28;20055;-69
2021/06/23 06:55:37;;;;;;;3.47;1.23;;;;;;;15.33;83.19;101562.50;5072953;28;20140;-69
2021/06/23 06:58:04;;;;;;;1.75;0.95;;;;;;;15.37;81.67;101556.13;5072464;28;20059;-69
2021/06/23 07:00:31;;;;;;;2.40;0.70;;;;;;;15.75;79.88;101545.88;5072650;28;20051;-69
2021/06/23 07:02:59;;;;;;;1.42;0.80;;;;;;;15.94;78.79;101537.63;5072715;28;20384;-69
2021/06/23 07:05:26;;;;;;;2.03;0.82;;;;;;;16.37;78.14;101542.69;5072778;28;20052;-68
2021/06/23 07:07:53;;;;;;;;;;;;;;;16.69;76.60;101544.91;5073241;28;20052;-68
2021/06/23 07:10:19;;;;;;;;;;;;;;;17.10;75.17;101547.34;5073045;28;19943;-68
2021/06/23 07:12:46;;;;;;;2.00;1.00;;;;;;;17.31;75.65;101552.03;5055214;28;19980;-69
2021/06/23 07:15:13;;;;;;;;;;;;;;;16.89;75.17;101564.63;5052572;28;20049;-70
2021/06/23 07:17:40;;;;;;;0.70;0.70;;;;;;;17.56;74.15;101548.50;5051928;28;19924;-69
2021/06/23 07:20:10;;;;;;;;;;;;;;;17.75;73.04;101554.13;5052250;28;20513;-69
2021/06/23 07:22:37;;;;;;;1.63;0.65;;;;;;;18.11;71.61;101543.66;5052756;28;19943;-72
2021/06/23 07:25:04;;;;;;;;;;;;;;;17.88;71.32;101550.63;5052464;28;20381;-70
2021/06/23 07:27:31;;;;;;;1.45;0.80;;;;;;;17.67;73.11;101561.72;5052461;28;19924;-69
2021/06/23 07:29:57;;;;;;;;;;;;;;;17.92;72.07;101554.72;5053075;28;20049;-69
2021/06/23 07:32:26;;;;;;;2.58;0.73;;;;;;;17.79;72.28;101565.25;5052108;28;19920;-69
2021/06/23 07:37:35;;;;;;;4.78;1.05;;;;;;;17.57;72.80;101555.44;5052046;28;20325;-69
2021/06/23 07:40:01;;;;;;;3.10;0.90;;;;;;;17.31;73.96;101558.13;5052249;28;20044;-69
2021/06/23 07:42:28;;;;;;;2.00;1.05;;;;;;;17.30;73.03;101558.25;5052033;28;20064;-69
2021/06/23 07:44:58;;;;;;;3.95;1.00;;;;;;;17.48;73.34;101556.94;5052172;28;20056;-70
2021/06/23 07:47:27;;;;;;;1.20;0.80;;;;;;;17.61;73.59;101557.75;5051775;28;20486;-70
2021/06/23 07:49:54;;;;;;;1.38;0.90;;;;;;;17.54;73.19;101561.75;5051918;28;20635;-70
2021/06/23 07:52:28;;;;;;;1.35;1.13;;;;;;;17.57;73.11;101569.47;5051490;28;20052;-69
2021/06/23 07:55:07;;;;;;;1.77;0.90;;;;;;;17.48;73.09;101567.47;5052190;28;20053;-69
2021/06/23 08:08:52;;;;;;;1.30;1.20;;;;;;;17.24;73.92;101571.81;5051772;28;20079;-70
2021/06/23 08:11:21;;;;;;;1.30;1.20;;;;;;;17.29;73.41;101572.34;5057017;28;20091;-70
2021/06/23 08:13:49;;;;;;;1.48;1.20;;;;;;;17.79;71.84;101567.91;5071558;28;20094;-69
2021/06/23 08:16:17;;;;;;;1.85;1.10;;;;;;;17.33;74.00;101569.41;5071343;28;20158;-68
2021/06/23 08:18:44;;;;;;;6.03;1.17;;;;;;;17.76;73.34;101560.22;5071956;28;20048;-68
2021/06/23 08:21:10;;;;;;;;;;;;;;;17.67;73.19;101569.59;5072122;28;20063;-67
2021/06/23 08:23:37;;;;;;;2.15;1.42;;;;;;;17.80;72.71;101561.69;5071508;28;19921;-67
2021/06/23 08:26:04;;;;;;;;;;;;;;;18.23;71.49;101559.38;5071715;28;20056;-67
2021/06/23 08:28:32;;;;;;;;;;;;;;;18.08;70.97;101559.69;5072381;28;19924;-67
2021/06/23 08:30:58;;;;;;;2.35;1.30;;;;;;;18.54;70.95;101561.50;5073457;28;19920;-69
2021/06/23 08:33:26;;;;;;;;;;;;;;;18.60;70.43;101564.53;5075544;28;20407;-68
2021/06/23 08:35:54;;;;;;;3.72;2.00;;;;;;;17.95;72.16;101557.94;5075468;28;19960;-68
2021/06/23 08:38:21;;;;;;;1.55;1.45;;;;;;;18.24;73.78;101558.44;5074950;28;20068;-68
2021/06/23 08:40:49;;;;;;;2.05;1.60;;;;;;;18.23;70.81;101548.84;5075244;28;20411;-67
2021/06/23 08:43:17;;;;;;;2.25;1.73;;;;;;;18.89;69.34;101557.03;5074959;28;20442;-67
2021/06/23 08:45:46;;;;;;;1.73;1.48;;;;;;;19.02;68.27;101553.47;5075010;28;20059;-68
2021/06/23 08:48:13;;;;;;;4.15;1.70;;;;;;;20.14;66.38;101553.25;5074814;28;20044;-68
2021/06/23 08:50:41;;;;;;;1.60;1.50;;;;;;;20.42;64.81;101543.00;5075354;28;20052;-68
2021/06/23 08:53:08;;;;;;;4.72;1.67;;;;;;;19.88;66.64;101541.31;5074622;28;20044;-68
2021/06/23 08:55:35;;;;;;;4.43;1.60;;;;;;;20.09;64.52;101544.00;5075290;28;20102;-67
2021/06/23 08:58:03;;;;;;;3.97;1.75;;;;;;;20.25;65.29;101539.13;5074500;28;20049;-68
2021/06/23 09:00:30;;;;;;;1.58;1.42;;;;;;;20.01;66.29;101549.91;5075049;28;20048;-67
2021/06/23 09:03:02;;;;;;;2.88;1.63;;;;;;;19.85;65.12;101539.78;5074747;28;20525;-68
2021/06/23 09:05:51;;;;;;;3.03;1.48;;;;;;;19.36;67.80;101559.53;5075073;28;20142;-69
2021/06/23 09:08:32;;;;;;;2.35;1.70;;;;;;;18.92;68.98;101555.97;5074297;28;20102;-68
2021/06/23 09:11:00;;;;;;;2.38;1.65;;;;;;;18.40;70.86;101558.13;5072218;28;20048;-68
2021/06/23 09:13:28;;;;;;;2.72;2.10;;;;;;;18.32;72.34;101555.25;5054568;28;20045;-69
2021/06/23 09:15:57;;;;;;;1.98;1.80;;;;;;;18.06;72.24;101560.66;5054859;28;20052;-70
2021/06/23 09:18:28;;;;;;;2.05;1.75;;;;;;;18.39;72.56;101559.06;5054273;28;20400;-68
2021/06/23 09:20:58;;;;;;;2.92;1.88;;;;;;;18.66;70.95;101569.31;5054326;28;20045;-68
2021/06/23 09:23:42;;;;;;;3.63;2.13;;;;;;;18.54;70.92;101562.34;5054523;28;20048;-69
2021/06/23 09:26:11;;;;;;;3.05;1.98;;;;;;;18.25;71.95;101575.91;5054145;28;20418;-68
2021/06/23 09:28:38;;;;;;;3.92;2.28;;;;;;;18.28;72.22;101570.41;5054660;28;20056;-68
2021/06/23 09:31:06;;;;;;;3.65;2.20;;;;;;;18.39;71.94;101569.59;5052734;28;20048;-70
2021/06/23 09:33:35;;;;;;;3.40;2.00;;;;;;;18.57;71.35;101566.53;5051833;28;20503;-70
2021/06/23 09:36:04;;;;;;;3.25;2.10;;;;;;;18.29;73.39;101555.47;5053485;28;20061;-68
2021/06/23 09:38:42;;;;;;;2.15;1.90;;;;;;;18.33;73.68;101550.81;5054302;28;20163;-68
2021/06/23 09:41:29;;;;;;;3.55;2.00;;;;;;;18.50;72.36;101550.38;5053649;28;20049;-69
2021/06/23 09:43:58;;;;;;;5.70;2.38;;;;;;;19.59;68.14;101539.22;5053948;28;20487;-69
2021/06/23 09:46:27;;;;;;;2.83;2.28;;;;;;;19.87;68.00;101548.41;5053759;28;20045;-69
2021/06/23 09:49:06;;;;;;;5.05;2.20;;;;;;;19.52;69.02;101554.75;5053903;28;20393;-68
2021/06/23 09:51:43;;;;;;;2.13;1.92;;;;;;;20.09;67.21;101554.56;5053827;28;20048;-69
2021/06/23 09:54:11;;;;;;;6.00;2.25;;;;;;;20.26;66.23;101555.81;5053899;28;20048;-69
2021/06/23 09:56:41;;;;;;;3.13;2.53;;;;;;;20.00;67.59;101558.81;5054028;28;20049;-68
2021/06/23 09:59:16;;;;;;;2.58;2.38;;;;;;;19.88;68.07;101551.88;5053851;28;20041;-68
2021/06/23 10:01:43;;;;;;;3.80;2.65;;;;;;;19.64;68.82;101554.69;5053694;28;20147;-69
2021/06/23 10:04:11;;;;;;;;;;;;;;;19.35;68.32;101561.34;5054225;28;20049;-70
2021/06/23 10:06:42;;;;;;;5.70;2.88;;;;;;;19.47;67.82;101563.97;5054126;28;19921;-69
2021/06/23 10:09:21;;;;;;;3.30;2.53;;;;;;;19.47;68.01;101567.47;5053322;28;20145;-70
2021/06/23 10:11:51;;;;;;;4.43;2.90;;;;;;;19.41;69.47;101562.66;5053922;28;20060;-69
2021/06/23 10:14:19;;;;;;;4.70;2.70;;;;;;;19.41;68.92;101567.09;5053537;28;20045;-70
2021/06/23 10:16:48;;;;;;;4.30;3.08;;;;;;;18.98;69.71;101571.31;5053648;28;20056;-70
2021/06/23 10:19:17;;;;;;;4.15;2.88;;;;;;;18.90;70.98;101574.53;5053446;28;20045;-70
2021/06/23 10:21:44;;;;;;;4.38;3.17;;;;;;;18.69;71.74;101578.78;5053339;28;20056;-69
2021/06/23 10:24:14;;;;;;;4.10;2.58;;;;;;;19.03;71.28;101569.16;5053327;28;20048;-69
2021/06/23 10:26:47;;;;;;;3.28;2.72;;;;;;;19.00;70.82;101571.19;5053504;28;20135;-69
2021/06/23 10:29:15;;;;;;;3.05;2.75;;;;;;;18.49;72.27;101570.59;5053177;28;20045;-67
2021/06/23 10:31:43;;;;;;;3.53;2.85;;;;;;;18.70;72.13;101568.16;5053345;28;20064;-69
2021/06/23 10:34:10;;;;;;;3.10;2.70;;;;;;;19.01;70.60;101562.31;5052794;28;20048;-68
2021/06/23 10:36:39;;;;;;;3.97;3.30;;;;;;;18.79;71.90;101563.16;5053385;28;20052;-69
2021/06/23 10:39:06;;;;;;;4.00;3.10;;;;;;;18.58;72.91;101560.34;5052660;28;20103;-69
2021/06/23 10:41:41;;;;;;;6.65;3.58;;;;;;;18.42;73.90;101563.25;5052900;28;20049;-69
2021/06/23 10:44:16;;;;;;;5.32;3.15;;;;;;;18.74;73.14;101563.47;5053131;28;20060;-68
2021/06/23 10:46:44;;;;;;;4.35;3.60;;;;;;;18.87;72.16;101566.88;5053205;28;20057;-69
2021/06/23 10:49:15;;;;;;;4.63;3.22;;;;;;;19.11;71.63;101555.34;5052427;28;20057;-69
2021/06/23 10:51:47;;;;;;;4.63;3.40;;;;;;;19.18;71.68;101553.09;5052924;28;20072;-68
2021/06/23 10:54:40;;;;;;;5.32;3.47;;;;;;;19.06;71.57;101541.69;5051921;28;20499;-69
2021/06/23 10:57:26;;;;;;;5.43;3.67;;;;;;;18.49;73.08;101538.97;5050053;28;20056;-69
2021/06/23 10:59:55;;;;;;;6.50;3.65;;;;;;;18.00;75.23;101545.28;5052703;28;20408;-69
2021/06/23 11:02:30;;;;;;;4.95;3.10;;;;;;;18.38;74.25;101551.28;5052582;28;20080;-70
2021/06/23 11:05:11;;;;;;;6.65;3.58;;;;;;;18.54;73.88;101549.16;5052939;28;20076;-69
2021/06/23 11:07:42;;;;;;;5.82;4.20;;;;;;;18.15;75.62;101556.47;5052605;28;20540;-68
2021/06/23 11:10:25;;;;;;;8.73;3.60;;;;;;;18.35;74.38;101549.72;5052552;28;20053;-68
2021/06/23 11:12:54;;;;;;;6.18;3.40;;;;;;;18.49;74.23;101553.94;5052484;28;20117;-69
2021/06/23 11:15:23;;;;;;;7.00;3.38;;;;;;;18.67;74.18;101563.09;5052303;28;20064;-68
2021/06/23 11:17:52;;;;;;;5.53;3.42;;;;;;;18.61;74.27;101558.28;5052304;28;20415;-68
2021/06/23 11:20:40;;;;;;;5.32;3.70;;;;;;;18.59;73.73;101559.38;5051910;28;20442;-68
2021/06/23 11:23:57;;;;;;;6.07;3.85;;;;;;;18.65;74.25;101557.13;5052036;28;20045;-68
2021/06/23 11:26:53;;;;;;;5.25;3.70;;;;;;;18.88;73.71;101554.50;5052068;28;20052;-69
2021/06/23 11:29:29;;;;;;;;;;;;;;;18.74;74.84;101554.72;5052785;28;20049;-68
2021/06/23 11:32:02;;;;;;;6.95;3.63;;;;;;;19.11;73.28;101543.03;5052168;28;19927;-68
2021/06/23 11:34:52;;;;;;;6.10;3.65;;;;;;;19.19;72.83;101549.47;5052329;28;20048;-69
2021/06/23 11:37:20;;;;;;;4.75;4.13;;;;;;;18.87;72.94;101552.84;5051866;28;20067;-69
2021/06/23 11:39:49;;;;;;;6.20;3.65;;;;;;;18.87;73.01;101547.56;5052272;28;20056;-68
2021/06/23 11:42:17;;;;;;;5.68;3.80;;;;;;;18.61;74.64;101531.94;5051708;28;20049;-68
2021/06/23 11:44:45;;;;;;;5.82;4.00;;;;;;;18.95;73.17;101528.53;5052194;28;20437;-68
2021/06/23 11:47:12;;;;;;;9.65;4.22;;;;;;;19.34;71.87;101527.16;5051475;28;20057;-68
2021/06/23 11:49:39;;;;;;;;;;;;;;;19.06;72.62;101537.28;5052732;28;20049;-68
2021/06/23 11:52:07;;;;;;;5.57;4.35;;;;;;;19.34;71.42;101525.38;5051543;28;20375;-68
2021/06/23 11:54:34;;;;;;;6.68;4.10;;;;;;;19.72;70.85;101532.03;5051869;28;20415;-68